sensor_id;sensor_type;location;lat;lon;timestamp;temperature;humidity
19538;DHT22;9914;51.008;4.300;2023-11-22T00:02:03;6.40;99.90
19538;DHT22;9914;51.008;4.300;2023-11-22T00:04:28;6.60;99.90
19538;DHT22;9914;51.008;4.300;2023-11-22T00:06:54;6.70;99.90
19538;DHT22;9914;51.008;4.300;2023-11-22T00:09:20;6.60;99.90
19538;DHT22;9914;51.008;4.300;2023-11-22T00:11:48;6.50;99.90
19538;DHT22;9914;51.008;4.300;2023-11-22T00:14:14;6.60;99.90
19538;DHT22;9914;51.008;4.300;2023-11-22T00:16:40;6.50;99.90
19538;DHT22;9914;51.008;4.300;2023-11-22T00:19:06;6.40;99.90
19538;DHT22;9914;51.008;4.300;2023-11-22T00:21:32;6.30;99.90
19538;DHT22;9914;51.008;4.300;2023-11-22T00:23:58;6.40;99.90
19538;DHT22;9914;51.008;4.300;2023-11-22T00:26:24;6.20;99.90
19538;DHT22;9914;51.008;4.300;2023-11-22T00:28:50;6.10;99.90
19538;DHT22;9914;51.008;4.300;2023-11-22T00:31:18;6.00;99.90
19538;DHT22;9914;51.008;4.300;2023-11-22T00:33:43;6.00;99.90
19538;DHT22;9914;51.008;4.300;2023-11-22T00:36:09;6.10;99.90
19538;DHT22;9914;51.008;4.300;2023-11-22T00:38:35;6.30;99.90
19538;DHT22;9914;51.008;4.300;2023-11-22T00:41:04;6.30;99.90
19538;DHT22;9914;51.008;4.300;2023-11-22T00:43:30;6.40;99.90
19538;DHT22;9914;51.008;4.300;2023-11-22T00:45:56;6.50;99.90
19538;DHT22;9914;51.008;4.300;2023-11-22T00:48:22;6.60;99.90
19538;DHT22;9914;51.008;4.300;2023-11-22T00:50:48;6.50;99.90
19538;DHT22;9914;51.008;4.300;2023-11-22T00:53:14;6.30;99.90
19538;DHT22;9914;51.008;4.300;2023-11-22T00:55:40;6.30;99.90
19538;DHT22;9914;51.008;4.300;2023-11-22T00:58:07;6.20;99.90
19538;DHT22;9914;51.008;4.300;2023-11-22T01:00:33;6.00;99.90
19538;DHT22;9914;51.008;4.300;2023-11-22T01:02:58;5.90;99.90
19538;DHT22;9914;51.008;4.300;2023-11-22T01:05:24;6.00;99.90
19538;DHT22;9914;51.008;4.300;2023-11-22T01:07:50;6.10;99.90
19538;DHT22;9914;51.008;4.300;2023-11-22T01:10:16;6.30;99.90
19538;DHT22;9914;51.008;4.300;2023-11-22T01:12:42;6.30;99.90
19538;DHT22;9914;51.008;4.300;2023-11-22T01:15:08;6.10;99.90
19538;DHT22;9914;51.008;4.300;2023-11-22T01:17:34;6.00;99.90
19538;DHT22;9914;51.008;4.300;2023-11-22T01:20:01;5.80;99.90
19538;DHT22;9914;51.008;4.300;2023-11-22T01:22:27;5.60;99.90
19538;DHT22;9914;51.008;4.300;2023-11-22T01:24:53;5.60;99.90
19538;DHT22;9914;51.008;4.300;2023-11-22T01:27:19;5.70;99.90
19538;DHT22;9914;51.008;4.300;2023-11-22T01:29:45;5.70;99.90
19538;DHT22;9914;51.008;4.300;2023-11-22T01:32:11;5.50;99.90
19538;DHT22;9914;51.008;4.300;2023-11-22T01:34:36;5.50;99.90
19538;DHT22;9914;51.008;4.300;2023-11-22T01:37:03;5.40;99.90
19538;DHT22;9914;51.008;4.300;2023-11-22T01:39:28;5.40;99.90
19538;DHT22;9914;51.008;4.300;2023-11-22T01:41:54;5.40;99.90
19538;DHT22;9914;51.008;4.300;2023-11-22T01:44:21;5.50;99.90
19538;DHT22;9914;51.008;4.300;2023-11-22T01:46:47;5.40;99.90
19538;DHT22;9914;51.008;4.300;2023-11-22T01:49:13;5.40;99.90
19538;DHT22;9914;51.008;4.300;2023-11-22T01:51:40;5.40;99.90
19538;DHT22;9914;51.008;4.300;2023-11-22T01:54:07;5.30;99.90
19538;DHT22;9914;51.008;4.300;2023-11-22T01:56:35;5.30;99.90
19538;DHT22;9914;51.008;4.300;2023-11-22T01:59:03;5.60;99.90
19538;DHT22;9914;51.008;4.300;2023-11-22T02:01:29;5.70;99.90
19538;DHT22;9914;51.008;4.300;2023-11-22T02:03:56;5.60;99.90
19538;DHT22;9914;51.008;4.300;2023-11-22T02:06:23;5.60;99.90
19538;DHT22;9914;51.008;4.300;2023-11-22T02:08:50;5.50;99.90
19538;DHT22;9914;51.008;4.300;2023-11-22T02:11:18;5.50;99.90
19538;DHT22;9914;51.008;4.300;2023-11-22T02:13:48;5.50;99.90
19538;DHT22;9914;51.008;4.300;2023-11-22T02:16:15;5.60;99.90
19538;DHT22;9914;51.008;4.300;2023-11-22T02:18:46;5.60;99.90
19538;DHT22;9914;51.008;4.300;2023-11-22T02:21:12;5.60;99.90
19538;DHT22;9914;51.008;4.300;2023-11-22T02:23:38;5.50;99.90
19538;DHT22;9914;51.008;4.300;2023-11-22T02:26:04;5.50;99.90
19538;DHT22;9914;51.008;4.300;2023-11-22T02:28:30;5.60;99.90
19538;DHT22;9914;51.008;4.300;2023-11-22T02:30:55;5.60;99.90
19538;DHT22;9914;51.008;4.300;2023-11-22T02:33:21;5.60;99.90
19538;DHT22;9914;51.008;4.300;2023-11-22T02:35:47;5.50;99.90
19538;DHT22;9914;51.008;4.300;2023-11-22T02:38:12;5.40;99.90
19538;DHT22;9914;51.008;4.300;2023-11-22T02:40:38;5.40;99.90
19538;DHT22;9914;51.008;4.300;2023-11-22T02:43:03;5.50;99.90
19538;DHT22;9914;51.008;4.300;2023-11-22T02:45:34;5.30;99.90
19538;DHT22;9914;51.008;4.300;2023-11-22T02:48:00;5.40;99.90
19538;DHT22;9914;51.008;4.300;2023-11-22T02:50:29;5.40;99.90
19538;DHT22;9914;51.008;4.300;2023-11-22T02:52:57;5.40;99.90
19538;DHT22;9914;51.008;4.300;2023-11-22T02:55:24;5.20;99.90
19538;DHT22;9914;51.008;4.300;2023-11-22T02:57:50;5.20;99.90
19538;DHT22;9914;51.008;4.300;2023-11-22T03:00:17;5.10;99.90
19538;DHT22;9914;51.008;4.300;2023-11-22T03:02:46;5.10;99.90
19538;DHT22;9914;51.008;4.300;2023-11-22T03:05:15;5.20;99.90
19538;DHT22;9914;51.008;4.300;2023-11-22T03:07:41;5.20;99.90
19538;DHT22;9914;51.008;4.300;2023-11-22T03:10:07;5.20;99.90
19538;DHT22;9914;51.008;4.300;2023-11-22T03:12:34;5.10;99.90
19538;DHT22;9914;51.008;4.300;2023-11-22T03:15:00;5.20;99.90
19538;DHT22;9914;51.008;4.300;2023-11-22T03:17:28;5.10;99.90
19538;DHT22;9914;51.008;4.300;2023-11-22T03:19:55;5.00;99.90
19538;DHT22;9914;51.008;4.300;2023-11-22T03:22:23;5.00;99.90
19538;DHT22;9914;51.008;4.300;2023-11-22T03:24:49;5.00;99.90
19538;DHT22;9914;51.008;4.300;2023-11-22T03:27:15;5.10;99.90
19538;DHT22;9914;51.008;4.300;2023-11-22T03:29:41;5.30;99.90
19538;DHT22;9914;51.008;4.300;2023-11-22T03:32:06;5.20;99.90
19538;DHT22;9914;51.008;4.300;2023-11-22T03:34:32;5.10;99.90
19538;DHT22;9914;51.008;4.300;2023-11-22T03:36:58;5.00;99.90
19538;DHT22;9914;51.008;4.300;2023-11-22T03:39:23;4.80;99.90
19538;DHT22;9914;51.008;4.300;2023-11-22T03:41:50;4.80;99.90
19538;DHT22;9914;51.008;4.300;2023-11-22T03:44:16;4.70;99.90
19538;DHT22;9914;51.008;4.300;2023-11-22T03:46:42;4.90;99.90
19538;DHT22;9914;51.008;4.300;2023-11-22T03:49:08;4.80;99.90
19538;DHT22;9914;51.008;4.300;2023-11-22T03:51:34;4.60;99.90
19538;DHT22;9914;51.008;4.300;2023-11-22T03:54:01;4.50;99.90
19538;DHT22;9914;51.008;4.300;2023-11-22T03:56:28;4.60;99.90
19538;DHT22;9914;51.008;4.300;2023-11-22T03:58:54;4.60;99.90
19538;DHT22;9914;51.008;4.300;2023-11-22T04:01:20;4.80;99.90
19538;DHT22;9914;51.008;4.300;2023-11-22T04:03:47;4.80;99.90
19538;DHT22;9914;51.008;4.300;2023-11-22T04:06:16;4.80;99.90
19538;DHT22;9914;51.008;4.300;2023-11-22T04:08:45;4.80;99.90
19538;DHT22;9914;51.008;4.300;2023-11-22T04:11:12;4.80;99.90
19538;DHT22;9914;51.008;4.300;2023-11-22T04:13:39;4.90;99.90
19538;DHT22;9914;51.008;4.300;2023-11-22T04:16:08;4.80;99.90
19538;DHT22;9914;51.008;4.300;2023-11-22T04:18:38;4.70;99.90
19538;DHT22;9914;51.008;4.300;2023-11-22T04:21:04;4.70;99.90
19538;DHT22;9914;51.008;4.300;2023-11-22T04:23:33;4.50;99.90
19538;DHT22;9914;51.008;4.300;2023-11-22T04:26:01;4.60;99.90
19538;DHT22;9914;51.008;4.300;2023-11-22T04:28:28;4.60;99.90
19538;DHT22;9914;51.008;4.300;2023-11-22T04:30:56;4.80;99.90
19538;DHT22;9914;51.008;4.300;2023-11-22T04:33:22;5.00;99.90
19538;DHT22;9914;51.008;4.300;2023-11-22T04:35:48;5.00;99.90
19538;DHT22;9914;51.008;4.300;2023-11-22T04:38:14;5.10;99.90
19538;DHT22;9914;51.008;4.300;2023-11-22T04:40:41;5.10;99.90
19538;DHT22;9914;51.008;4.300;2023-11-22T04:43:10;5.20;99.90
19538;DHT22;9914;51.008;4.300;2023-11-22T04:45:35;5.20;99.90
19538;DHT22;9914;51.008;4.300;2023-11-22T04:48:01;5.30;99.90
19538;DHT22;9914;51.008;4.300;2023-11-22T04:50:27;5.40;99.90
19538;DHT22;9914;51.008;4.300;2023-11-22T04:52:53;5.40;99.90
19538;DHT22;9914;51.008;4.300;2023-11-22T04:55:18;5.40;99.90
19538;DHT22;9914;51.008;4.300;2023-11-22T04:57:50;5.30;99.90
19538;DHT22;9914;51.008;4.300;2023-11-22T05:00:16;5.40;99.90
19538;DHT22;9914;51.008;4.300;2023-11-22T05:02:42;5.50;99.90
19538;DHT22;9914;51.008;4.300;2023-11-22T05:05:08;5.40;99.90
19538;DHT22;9914;51.008;4.300;2023-11-22T05:07:37;5.70;99.90
19538;DHT22;9914;51.008;4.300;2023-11-22T05:10:04;5.50;99.90
19538;DHT22;9914;51.008;4.300;2023-11-22T05:12:31;5.40;99.90
19538;DHT22;9914;51.008;4.300;2023-11-22T05:14:56;5.40;99.90
19538;DHT22;9914;51.008;4.300;2023-11-22T05:17:22;5.40;99.90
19538;DHT22;9914;51.008;4.300;2023-11-22T05:19:49;5.40;99.90
19538;DHT22;9914;51.008;4.300;2023-11-22T05:22:15;5.30;99.90
19538;DHT22;9914;51.008;4.300;2023-11-22T05:24:41;5.40;99.90
19538;DHT22;9914;51.008;4.300;2023-11-22T05:27:07;5.50;99.90
19538;DHT22;9914;51.008;4.300;2023-11-22T05:29:33;5.50;99.90
19538;DHT22;9914;51.008;4.300;2023-11-22T05:32:01;5.40;99.90
19538;DHT22;9914;51.008;4.300;2023-11-22T05:34:28;5.40;99.90
19538;DHT22;9914;51.008;4.300;2023-11-22T05:36:54;5.40;99.90
19538;DHT22;9914;51.008;4.300;2023-11-22T05:39:20;5.30;99.90
19538;DHT22;9914;51.008;4.300;2023-11-22T05:41:47;5.30;99.90
19538;DHT22;9914;51.008;4.300;2023-11-22T05:44:14;5.30;99.90
19538;DHT22;9914;51.008;4.300;2023-11-22T05:46:40;5.30;99.90
19538;DHT22;9914;51.008;4.300;2023-11-22T05:49:05;5.30;99.90
19538;DHT22;9914;51.008;4.300;2023-11-22T05:51:32;5.20;99.90
19538;DHT22;9914;51.008;4.300;2023-11-22T05:53:57;5.20;99.90
19538;DHT22;9914;51.008;4.300;2023-11-22T05:56:23;5.40;99.90
19538;DHT22;9914;51.008;4.300;2023-11-22T05:58:49;5.30;99.90
19538;DHT22;9914;51.008;4.300;2023-11-22T06:01:14;5.50;99.90
19538;DHT22;9914;51.008;4.300;2023-11-22T06:03:42;5.60;99.90
19538;DHT22;9914;51.008;4.300;2023-11-22T06:06:07;5.40;99.90
19538;DHT22;9914;51.008;4.300;2023-11-22T06:08:33;5.30;99.90
19538;DHT22;9914;51.008;4.300;2023-11-22T06:10:59;5.30;99.90
19538;DHT22;9914;51.008;4.300;2023-11-22T06:13:25;5.30;99.90
19538;DHT22;9914;51.008;4.300;2023-11-22T06:15:51;5.50;99.90
19538;DHT22;9914;51.008;4.300;2023-11-22T06:18:17;5.40;99.90
19538;DHT22;9914;51.008;4.300;2023-11-22T06:20:44;5.40;99.90
19538;DHT22;9914;51.008;4.300;2023-11-22T06:23:10;5.40;99.90
19538;DHT22;9914;51.008;4.300;2023-11-22T06:25:36;5.30;99.90
19538;DHT22;9914;51.008;4.300;2023-11-22T06:28:02;5.40;99.90
19538;DHT22;9914;51.008;4.300;2023-11-22T06:30:28;5.50;99.90
19538;DHT22;9914;51.008;4.300;2023-11-22T06:32:55;5.60;99.90
19538;DHT22;9914;51.008;4.300;2023-11-22T06:35:21;5.50;99.90
19538;DHT22;9914;51.008;4.300;2023-11-22T06:37:47;5.60;99.90
19538;DHT22;9914;51.008;4.300;2023-11-22T06:40:13;5.70;99.90
19538;DHT22;9914;51.008;4.300;2023-11-22T06:42:41;5.70;99.90
19538;DHT22;9914;51.008;4.300;2023-11-22T06:45:07;5.80;99.90
19538;DHT22;9914;51.008;4.300;2023-11-22T06:47:38;5.80;99.90
19538;DHT22;9914;51.008;4.300;2023-11-22T06:50:04;5.70;99.90
19538;DHT22;9914;51.008;4.300;2023-11-22T06:52:35;5.80;99.90
19538;DHT22;9914;51.008;4.300;2023-11-22T06:55:01;5.90;99.90
19538;DHT22;9914;51.008;4.300;2023-11-22T06:57:26;5.90;99.90
19538;DHT22;9914;51.008;4.300;2023-11-22T06:59:55;6.00;99.90
19538;DHT22;9914;51.008;4.300;2023-11-22T07:02:21;6.00;99.90
19538;DHT22;9914;51.008;4.300;2023-11-22T07:04:47;6.10;99.90
19538;DHT22;9914;51.008;4.300;2023-11-22T07:07:12;6.10;99.90
19538;DHT22;9914;51.008;4.300;2023-11-22T07:09:42;6.10;99.90
19538;DHT22;9914;51.008;4.300;2023-11-22T07:12:08;6.20;99.90
19538;DHT22;9914;51.008;4.300;2023-11-22T07:14:34;6.20;99.90
19538;DHT22;9914;51.008;4.300;2023-11-22T07:16:59;6.20;99.90
19538;DHT22;9914;51.008;4.300;2023-11-22T07:19:25;6.20;99.90
19538;DHT22;9914;51.008;4.300;2023-11-22T07:21:51;6.30;99.90
19538;DHT22;9914;51.008;4.300;2023-11-22T07:24:17;6.40;99.90
19538;DHT22;9914;51.008;4.300;2023-11-22T07:26:44;6.50;99.90
19538;DHT22;9914;51.008;4.300;2023-11-22T07:29:10;6.50;99.90
19538;DHT22;9914;51.008;4.300;2023-11-22T07:31:38;6.50;99.90
19538;DHT22;9914;51.008;4.300;2023-11-22T07:34:04;6.60;99.90
19538;DHT22;9914;51.008;4.300;2023-11-22T07:36:29;6.60;99.90
19538;DHT22;9914;51.008;4.300;2023-11-22T07:38:56;6.60;99.90
19538;DHT22;9914;51.008;4.300;2023-11-22T07:41:23;6.50;99.90
19538;DHT22;9914;51.008;4.300;2023-11-22T07:43:48;6.60;99.90
19538;DHT22;9914;51.008;4.300;2023-11-22T07:46:15;6.60;99.90
19538;DHT22;9914;51.008;4.300;2023-11-22T07:48:42;6.80;99.90
19538;DHT22;9914;51.008;4.300;2023-11-22T07:51:08;6.80;99.90
19538;DHT22;9914;51.008;4.300;2023-11-22T07:53:34;6.80;99.90
19538;DHT22;9914;51.008;4.300;2023-11-22T07:56:01;6.80;99.90
19538;DHT22;9914;51.008;4.300;2023-11-22T07:58:30;6.90;99.90
19538;DHT22;9914;51.008;4.300;2023-11-22T08:00:57;6.90;99.90
19538;DHT22;9914;51.008;4.300;2023-11-22T08:03:23;6.80;99.90
19538;DHT22;9914;51.008;4.300;2023-11-22T08:05:51;6.80;99.90
19538;DHT22;9914;51.008;4.300;2023-11-22T08:08:20;7.00;99.90
19538;DHT22;9914;51.008;4.300;2023-11-22T08:10:46;7.10;99.90
19538;DHT22;9914;51.008;4.300;2023-11-22T08:13:14;7.10;99.90
19538;DHT22;9914;51.008;4.300;2023-11-22T08:15:41;7.00;99.90
19538;DHT22;9914;51.008;4.300;2023-11-22T08:18:07;7.10;99.90
19538;DHT22;9914;51.008;4.300;2023-11-22T08:20:32;7.10;99.90
19538;DHT22;9914;51.008;4.300;2023-11-22T08:22:58;7.10;99.90
19538;DHT22;9914;51.008;4.300;2023-11-22T08:25:24;7.00;99.90
19538;DHT22;9914;51.008;4.300;2023-11-22T08:27:49;7.10;99.90
19538;DHT22;9914;51.008;4.300;2023-11-22T08:30:15;7.30;99.90
19538;DHT22;9914;51.008;4.300;2023-11-22T08:32:45;7.30;99.90
19538;DHT22;9914;51.008;4.300;2023-11-22T08:35:13;7.40;99.90
19538;DHT22;9914;51.008;4.300;2023-11-22T08:37:41;7.50;99.90
19538;DHT22;9914;51.008;4.300;2023-11-22T08:40:08;7.40;99.90
19538;DHT22;9914;51.008;4.300;2023-11-22T08:42:35;7.60;99.90
19538;DHT22;9914;51.008;4.300;2023-11-22T08:45:06;7.60;99.90
19538;DHT22;9914;51.008;4.300;2023-11-22T08:47:34;7.60;99.90
19538;DHT22;9914;51.008;4.300;2023-11-22T08:49:59;7.60;99.90
19538;DHT22;9914;51.008;4.300;2023-11-22T08:52:26;7.60;99.90
19538;DHT22;9914;51.008;4.300;2023-11-22T08:54:51;7.70;99.90
19538;DHT22;9914;51.008;4.300;2023-11-22T08:57:18;7.50;99.90
19538;DHT22;9914;51.008;4.300;2023-11-22T08:59:44;7.50;99.90
19538;DHT22;9914;51.008;4.300;2023-11-22T09:02:09;7.60;99.90
19538;DHT22;9914;51.008;4.300;2023-11-22T09:04:38;7.50;99.90
19538;DHT22;9914;51.008;4.300;2023-11-22T09:07:03;7.60;99.90
19538;DHT22;9914;51.008;4.300;2023-11-22T09:09:31;7.70;99.90
19538;DHT22;9914;51.008;4.300;2023-11-22T09:11:58;7.80;99.90
19538;DHT22;9914;51.008;4.300;2023-11-22T09:14:24;7.90;99.90
19538;DHT22;9914;51.008;4.300;2023-11-22T09:16:52;7.80;99.90
19538;DHT22;9914;51.008;4.300;2023-11-22T09:19:24;7.80;99.90
19538;DHT22;9914;51.008;4.300;2023-11-22T09:21:51;7.80;99.90
19538;DHT22;9914;51.008;4.300;2023-11-22T09:24:16;8.00;99.90
19538;DHT22;9914;51.008;4.300;2023-11-22T09:26:42;8.00;99.90
19538;DHT22;9914;51.008;4.300;2023-11-22T09:29:09;8.10;99.90
19538;DHT22;9914;51.008;4.300;2023-11-22T09:31:39;8.30;99.90
19538;DHT22;9914;51.008;4.300;2023-11-22T09:34:05;8.20;99.90
19538;DHT22;9914;51.008;4.300;2023-11-22T09:36:30;8.40;99.90
19538;DHT22;9914;51.008;4.300;2023-11-22T09:38:59;8.20;99.90
19538;DHT22;9914;51.008;4.300;2023-11-22T09:41:25;8.20;99.90
19538;DHT22;9914;51.008;4.300;2023-11-22T09:43:53;8.20;99.90
19538;DHT22;9914;51.008;4.300;2023-11-22T09:46:19;8.10;99.90
19538;DHT22;9914;51.008;4.300;2023-11-22T09:48:48;8.20;99.90
19538;DHT22;9914;51.008;4.300;2023-11-22T09:53:57;8.30;99.90
19538;DHT22;9914;51.008;4.300;2023-11-22T09:56:26;8.30;99.90
19538;DHT22;9914;51.008;4.300;2023-11-22T09:58:55;8.20;99.90
19538;DHT22;9914;51.008;4.300;2023-11-22T10:01:23;8.20;99.90
19538;DHT22;9914;51.008;4.300;2023-11-22T10:03:49;8.20;99.90
19538;DHT22;9914;51.008;4.300;2023-11-22T10:06:15;8.10;99.90
19538;DHT22;9914;51.008;4.300;2023-11-22T10:08:42;8.20;99.90
19538;DHT22;9914;51.008;4.300;2023-11-22T10:11:07;8.10;99.90
19538;DHT22;9914;51.008;4.300;2023-11-22T10:13:34;8.20;99.90
19538;DHT22;9914;51.008;4.300;2023-11-22T10:16:10;8.30;99.90
19538;DHT22;9914;51.008;4.300;2023-11-22T10:18:47;8.40;99.90
19538;DHT22;9914;51.008;4.300;2023-11-22T10:21:26;8.30;99.90
19538;DHT22;9914;51.008;4.300;2023-11-22T10:23:56;8.30;99.90
19538;DHT22;9914;51.008;4.300;2023-11-22T10:26:23;8.20;99.90
19538;DHT22;9914;51.008;4.300;2023-11-22T10:28:52;8.30;99.90
19538;DHT22;9914;51.008;4.300;2023-11-22T10:31:19;8.40;99.90
19538;DHT22;9914;51.008;4.300;2023-11-22T10:33:47;8.30;99.90
19538;DHT22;9914;51.008;4.300;2023-11-22T10:36:13;8.30;99.90
19538;DHT22;9914;51.008;4.300;2023-11-22T10:38:40;8.50;99.90
19538;DHT22;9914;51.008;4.300;2023-11-22T10:41:10;8.40;99.90
19538;DHT22;9914;51.008;4.300;2023-11-22T10:43:37;8.10;99.90
19538;DHT22;9914;51.008;4.300;2023-11-22T10:46:03;8.20;99.90
19538;DHT22;9914;51.008;4.300;2023-11-22T10:48:31;8.50;99.90
19538;DHT22;9914;51.008;4.300;2023-11-22T10:51:00;8.70;99.90
19538;DHT22;9914;51.008;4.300;2023-11-22T10:53:52;8.70;99.90
19538;DHT22;9914;51.008;4.300;2023-11-22T10:56:19;8.70;99.90
19538;DHT22;9914;51.008;4.300;2023-11-22T10:58:55;8.70;99.90
19538;DHT22;9914;51.008;4.300;2023-11-22T11:01:24;8.70;99.90
19538;DHT22;9914;51.008;4.300;2023-11-22T11:04:02;8.80;99.90
19538;DHT22;9914;51.008;4.300;2023-11-22T11:06:34;8.80;99.90
19538;DHT22;9914;51.008;4.300;2023-11-22T11:09:05;8.90;99.90
19538;DHT22;9914;51.008;4.300;2023-11-22T11:11:34;8.80;99.90
19538;DHT22;9914;51.008;4.300;2023-11-22T11:14:02;8.80;99.90
19538;DHT22;9914;51.008;4.300;2023-11-22T11:16:30;8.90;99.90
19538;DHT22;9914;51.008;4.300;2023-11-22T11:18:56;9.00;99.90
19538;DHT22;9914;51.008;4.300;2023-11-22T11:21:25;9.00;99.90
19538;DHT22;9914;51.008;4.300;2023-11-22T11:23:52;9.00;99.90
19538;DHT22;9914;51.008;4.300;2023-11-22T11:26:20;8.90;99.90
19538;DHT22;9914;51.008;4.300;2023-11-22T11:28:50;9.00;99.90
19538;DHT22;9914;51.008;4.300;2023-11-22T11:31:17;9.00;99.90
19538;DHT22;9914;51.008;4.300;2023-11-22T11:36:28;9.10;99.90
19538;DHT22;9914;51.008;4.300;2023-11-22T11:39:04;9.10;99.90
19538;DHT22;9914;51.008;4.300;2023-11-22T11:41:32;9.10;99.90
19538;DHT22;9914;51.008;4.300;2023-11-22T11:43:59;9.10;99.90
19538;DHT22;9914;51.008;4.300;2023-11-22T11:46:26;9.30;99.90
19538;DHT22;9914;51.008;4.300;2023-11-22T11:48:55;9.40;99.90
19538;DHT22;9914;51.008;4.300;2023-11-22T11:51:25;9.50;99.90
19538;DHT22;9914;51.008;4.300;2023-11-22T11:53:52;9.70;99.90
19538;DHT22;9914;51.008;4.300;2023-11-22T11:56:18;9.90;99.90
19538;DHT22;9914;51.008;4.300;2023-11-22T11:58:45;10.10;99.90
19538;DHT22;9914;51.008;4.300;2023-11-22T12:01:20;10.30;99.90
19538;DHT22;9914;51.008;4.300;2023-11-22T12:03:48;10.50;99.90
19538;DHT22;9914;51.008;4.300;2023-11-22T12:06:15;10.60;99.90
19538;DHT22;9914;51.008;4.300;2023-11-22T12:08:42;10.70;99.90
19538;DHT22;9914;51.008;4.300;2023-11-22T12:11:08;10.70;99.90
19538;DHT22;9914;51.008;4.300;2023-11-22T12:13:34;10.70;99.90
19538;DHT22;9914;51.008;4.300;2023-11-22T12:16:02;10.60;99.90
19538;DHT22;9914;51.008;4.300;2023-11-22T12:18:48;10.50;99.90
19538;DHT22;9914;51.008;4.300;2023-11-22T12:21:16;10.50;99.90
19538;DHT22;9914;51.008;4.300;2023-11-22T12:23:42;10.30;99.90
19538;DHT22;9914;51.008;4.300;2023-11-22T12:26:13;10.30;99.90
19538;DHT22;9914;51.008;4.300;2023-11-22T12:28:42;10.30;99.90
19538;DHT22;9914;51.008;4.300;2023-11-22T12:31:14;10.10;99.90
19538;DHT22;9914;51.008;4.300;2023-11-22T12:33:43;10.00;99.90
19538;DHT22;9914;51.008;4.300;2023-11-22T12:36:10;9.80;99.90
19538;DHT22;9914;51.008;4.300;2023-11-22T12:38:40;9.90;99.90
19538;DHT22;9914;51.008;4.300;2023-11-22T12:41:06;9.90;99.90
19538;DHT22;9914;51.008;4.300;2023-11-22T12:43:35;9.90;99.90
19538;DHT22;9914;51.008;4.300;2023-11-22T12:46:02;9.80;99.90
19538;DHT22;9914;51.008;4.300;2023-11-22T12:48:28;9.90;99.90
19538;DHT22;9914;51.008;4.300;2023-11-22T12:50:58;9.80;99.90
19538;DHT22;9914;51.008;4.300;2023-11-22T12:53:24;9.70;99.90
19538;DHT22;9914;51.008;4.300;2023-11-22T12:55:54;9.70;99.90
19538;DHT22;9914;51.008;4.300;2023-11-22T12:58:22;9.50;99.90
19538;DHT22;9914;51.008;4.300;2023-11-22T13:00:50;9.50;99.90
19538;DHT22;9914;51.008;4.300;2023-11-22T13:03:16;9.50;99.90
19538;DHT22;9914;51.008;4.300;2023-11-22T13:05:43;9.30;99.90
19538;DHT22;9914;51.008;4.300;2023-11-22T13:08:10;9.30;99.90
19538;DHT22;9914;51.008;4.300;2023-11-22T13:10:45;9.30;99.90
19538;DHT22;9914;51.008;4.300;2023-11-22T13:13:22;9.50;99.90
19538;DHT22;9914;51.008;4.300;2023-11-22T13:15:48;9.10;99.90
19538;DHT22;9914;51.008;4.300;2023-11-22T13:18:18;9.20;99.90
19538;DHT22;9914;51.008;4.300;2023-11-22T13:20:44;9.30;99.90
19538;DHT22;9914;51.008;4.300;2023-11-22T13:23:10;9.30;99.90
19538;DHT22;9914;51.008;4.300;2023-11-22T13:25:36;9.40;99.90
19538;DHT22;9914;51.008;4.300;2023-11-22T13:28:02;9.60;99.90
19538;DHT22;9914;51.008;4.300;2023-11-22T13:30:28;9.70;99.90
19538;DHT22;9914;51.008;4.300;2023-11-22T13:32:54;9.80;99.90
19538;DHT22;9914;51.008;4.300;2023-11-22T13:35:27;10.00;99.90
19538;DHT22;9914;51.008;4.300;2023-11-22T13:37:57;10.10;99.90
19538;DHT22;9914;51.008;4.300;2023-11-22T13:40:23;10.20;99.90
19538;DHT22;9914;51.008;4.300;2023-11-22T13:42:51;10.00;99.90
19538;DHT22;9914;51.008;4.300;2023-11-22T13:45:20;9.90;99.90
19538;DHT22;9914;51.008;4.300;2023-11-22T13:47:50;9.90;99.90
19538;DHT22;9914;51.008;4.300;2023-11-22T13:50:20;10.00;99.90
19538;DHT22;9914;51.008;4.300;2023-11-22T13:52:49;9.90;99.90
19538;DHT22;9914;51.008;4.300;2023-11-22T13:55:16;9.90;99.90
19538;DHT22;9914;51.008;4.300;2023-11-22T13:57:45;9.70;99.90
19538;DHT22;9914;51.008;4.300;2023-11-22T14:00:11;9.70;99.90
19538;DHT22;9914;51.008;4.300;2023-11-22T14:02:48;9.60;99.90
19538;DHT22;9914;51.008;4.300;2023-11-22T14:05:14;9.50;99.90
19538;DHT22;9914;51.008;4.300;2023-11-22T14:07:41;9.30;99.90
19538;DHT22;9914;51.008;4.300;2023-11-22T14:10:07;9.40;99.90
19538;DHT22;9914;51.008;4.300;2023-11-22T14:12:34;9.40;99.90
19538;DHT22;9914;51.008;4.300;2023-11-22T14:15:01;9.60;99.90
19538;DHT22;9914;51.008;4.300;2023-11-22T14:17:27;9.70;99.90
19538;DHT22;9914;51.008;4.300;2023-11-22T14:19:52;9.80;99.90
19538;DHT22;9914;51.008;4.300;2023-11-22T14:22:21;9.90;99.90
19538;DHT22;9914;51.008;4.300;2023-11-22T14:24:48;10.00;99.90
19538;DHT22;9914;51.008;4.300;2023-11-22T14:27:14;10.00;99.90
19538;DHT22;9914;51.008;4.300;2023-11-22T14:29:40;9.90;99.90
19538;DHT22;9914;51.008;4.300;2023-11-22T14:32:06;9.90;99.90
19538;DHT22;9914;51.008;4.300;2023-11-22T14:34:32;9.90;99.90
19538;DHT22;9914;51.008;4.300;2023-11-22T14:36:58;9.90;99.90
19538;DHT22;9914;51.008;4.300;2023-11-22T14:39:24;9.80;99.90
19538;DHT22;9914;51.008;4.300;2023-11-22T14:41:49;9.90;99.90
19538;DHT22;9914;51.008;4.300;2023-11-22T14:44:16;9.80;99.90
19538;DHT22;9914;51.008;4.300;2023-11-22T14:46:43;9.90;99.90
19538;DHT22;9914;51.008;4.300;2023-11-22T14:49:09;9.90;99.90
19538;DHT22;9914;51.008;4.300;2023-11-22T14:51:35;9.80;99.90
19538;DHT22;9914;51.008;4.300;2023-11-22T14:54:00;9.70;99.90
19538;DHT22;9914;51.008;4.300;2023-11-22T14:56:26;9.80;99.90
19538;DHT22;9914;51.008;4.300;2023-11-22T14:58:52;9.90;99.90
19538;DHT22;9914;51.008;4.300;2023-11-22T15:01:21;9.80;99.90
19538;DHT22;9914;51.008;4.300;2023-11-22T15:03:47;9.80;99.90
19538;DHT22;9914;51.008;4.300;2023-11-22T15:06:14;9.70;99.90
19538;DHT22;9914;51.008;4.300;2023-11-22T15:08:40;9.70;99.90
19538;DHT22;9914;51.008;4.300;2023-11-22T15:11:06;9.60;99.90
19538;DHT22;9914;51.008;4.300;2023-11-22T15:13:33;9.70;99.90
19538;DHT22;9914;51.008;4.300;2023-11-22T15:15:58;9.60;99.90
19538;DHT22;9914;51.008;4.300;2023-11-22T15:18:25;9.60;99.90
19538;DHT22;9914;51.008;4.300;2023-11-22T15:20:52;9.50;99.90
19538;DHT22;9914;51.008;4.300;2023-11-22T15:23:17;9.50;99.90
19538;DHT22;9914;51.008;4.300;2023-11-22T15:25:45;9.50;99.90
19538;DHT22;9914;51.008;4.300;2023-11-22T15:28:10;9.50;99.90
19538;DHT22;9914;51.008;4.300;2023-11-22T15:30:36;9.50;99.90
19538;DHT22;9914;51.008;4.300;2023-11-22T15:33:03;9.50;99.90
19538;DHT22;9914;51.008;4.300;2023-11-22T15:35:30;9.60;99.90
19538;DHT22;9914;51.008;4.300;2023-11-22T15:37:56;9.60;99.90
19538;DHT22;9914;51.008;4.300;2023-11-22T15:40:22;9.50;99.90
19538;DHT22;9914;51.008;4.300;2023-11-22T15:42:47;9.60;99.90
19538;DHT22;9914;51.008;4.300;2023-11-22T15:45:13;9.60;99.90
19538;DHT22;9914;51.008;4.300;2023-11-22T15:47:38;9.60;99.90
19538;DHT22;9914;51.008;4.300;2023-11-22T15:50:04;9.60;99.90
19538;DHT22;9914;51.008;4.300;2023-11-22T15:52:35;9.60;99.90
19538;DHT22;9914;51.008;4.300;2023-11-22T15:55:02;9.50;99.90
19538;DHT22;9914;51.008;4.300;2023-11-22T15:57:29;9.40;99.90
19538;DHT22;9914;51.008;4.300;2023-11-22T15:59:54;9.40;99.90
19538;DHT22;9914;51.008;4.300;2023-11-22T16:02:20;9.40;99.90
19538;DHT22;9914;51.008;4.300;2023-11-22T16:04:45;9.40;99.90